Time,TemperatureF,DewpointF,PressureIn,WindDirection,WindDirectionDegrees,WindSpeedMPH,WindSpeedGustMPH,Humidity,HourlyPrecipIn,Conditions,Clouds,dailyrainin,SolarRadiationWatts/m^2,SoftwareType,DateUTC
2013-03-21 00:02:00,13.0,3.0,-100.00,North,2,5.0,12.0,63,0.00,,,0.00,0.000000,,2013-03-21 05:02:00,
2013-03-21 00:22:00,13.0,3.0,-100.00,NNW,348,4.0,10.0,63,0.00,,,0.00,0.000000,,2013-03-21 05:22:00,
2013-03-21 00:33:00,13.0,3.0,-100.00,NNW,348,4.0,10.0,63,0.00,,,0.00,0.000000,,2013-03-21 05:33:00,
2013-03-21 00:44:00,13.0,3.0,-100.00,NNW,348,4.0,10.0,63,0.00,,,0.00,0.000000,,2013-03-21 05:44:00,
2013-03-21 00:52:00,13.0,3.0,-100.00,NNW,348,4.0,10.0,63,0.00,,,0.00,0.000000,,2013-03-21 05:52:00,
2013-03-21 01:02:00,13.0,3.0,-100.00,NNW,348,4.0,10.0,63,0.00,,,0.00,0.000000,,2013-03-21 06:02:00,
2013-03-21 01:23:00,13.0,3.0,-100.00,NNW,327,5.0,8.0,65,0.00,,,0.00,0.000000,,2013-03-21 06:23:00,
2013-03-21 01:32:00,13.0,3.0,-100.00,NNW,327,5.0,8.0,65,0.00,,,0.00,0.000000,,2013-03-21 06:32:00,
2013-03-21 01:42:00,13.0,3.0,-100.00,NNW,327,5.0,8.0,65,0.00,,,0.00,0.000000,,2013-03-21 06:42:00,
2013-03-21 01:52:00,13.0,3.0,-100.00,NNW,327,5.0,8.0,65,0.00,,,0.00,0.000000,,2013-03-21 06:52:00,
2013-03-21 02:02:00,13.0,3.0,-100.00,NNW,327,5.0,8.0,65,0.00,,,0.00,0.000000,,2013-03-21 07:02:00,
2013-03-21 02:32:00,12.0,3.0,-100.00,North,350,4.0,8.0,67,0.00,,,0.00,0.000000,,2013-03-21 07:32:00,
2013-03-21 02:43:00,12.0,3.0,-100.00,North,350,4.0,8.0,67,0.00,,,0.00,0.000000,,2013-03-21 07:43:00,
2013-03-21 02:52:00,12.0,3.0,-100.00,North,350,4.0,8.0,67,0.00,,,0.00,0.000000,,2013-03-21 07:52:00,
2013-03-21 03:02:00,12.0,3.0,-100.00,North,350,4.0,8.0,67,0.00,,,0.00,0.000000,,2013-03-21 08:02:00,
2013-03-21 03:33:00,12.0,4.0,-100.00,NNW,344,5.0,9.0,68,0.00,,,0.00,0.000000,,2013-03-21 08:33:00,
2013-03-21 03:42:00,12.0,4.0,-100.00,NNW,344,5.0,9.0,68,0.00,,,0.00,0.000000,,2013-03-21 08:42:00,
2013-03-21 03:52:00,12.0,4.0,-100.00,NNW,344,5.0,9.0,68,0.00,,,0.00,0.000000,,2013-03-21 08:52:00,
2013-03-21 04:02:00,12.0,4.0,-100.00,NNW,344,5.0,9.0,68,0.00,,,0.00,0.000000,,2013-03-21 09:02:00,
2013-03-21 04:33:00,12.0,4.0,-100.00,North,359,7.0,11.0,68,0.00,,,0.00,0.000000,,2013-03-21 09:33:00,
2013-03-21 04:43:00,12.0,4.0,-100.00,North,359,7.0,11.0,68,0.00,,,0.00,0.000000,,2013-03-21 09:43:00,
2013-03-21 04:53:00,12.0,4.0,-100.00,North,359,7.0,11.0,68,0.00,,,0.00,0.000000,,2013-03-21 09:53:00,
2013-03-21 05:03:00,12.0,4.0,-100.00,North,359,7.0,11.0,68,0.00,,,0.00,0.000000,,2013-03-21 10:03:00,
2013-03-21 05:23:00,12.0,4.0,-100.00,North,355,6.0,12.0,70,0.00,,,0.00,0.000000,,2013-03-21 10:23:00,
2013-03-21 05:34:00,12.0,4.0,-100.00,North,355,6.0,12.0,70,0.00,,,0.00,0.000000,,2013-03-21 10:34:00,
2013-03-21 05:43:00,12.0,4.0,-100.00,North,355,6.0,12.0,70,0.00,,,0.00,0.000000,,2013-03-21 10:43:00,
2013-03-21 05:53:00,12.0,4.0,-100.00,North,355,6.0,12.0,70,0.00,,,0.00,0.000000,,2013-03-21 10:53:00,
2013-03-21 06:03:00,12.0,4.0,-100.00,North,355,6.0,12.0,70,0.00,,,0.00,0.000000,,2013-03-21 11:03:00,
2013-03-21 06:33:00,11.0,3.0,-100.00,NNW,342,4.0,12.0,71,0.00,,,0.00,0.000000,,2013-03-21 11:33:00,
2013-03-21 06:43:00,11.0,3.0,-100.00,NNW,342,4.0,12.0,71,0.00,,,0.00,0.000000,,2013-03-21 11:43:00,
2013-03-21 06:53:00,11.0,3.0,-100.00,NNW,342,4.0,12.0,71,0.00,,,0.00,0.000000,,2013-03-21 11:53:00,
2013-03-21 07:02:00,11.0,3.0,-100.00,NNW,342,4.0,12.0,71,0.00,,,0.00,0.000000,,2013-03-21 12:02:00,
2013-03-21 07:33:00,11.0,4.0,-100.00,NNW,343,5.0,9.0,72,0.00,,,0.00,0.000000,,2013-03-21 12:33:00,
2013-03-21 07:43:00,11.0,4.0,-100.00,NNW,343,5.0,9.0,72,0.00,,,0.00,0.000000,,2013-03-21 12:43:00,
2013-03-21 07:53:00,11.0,4.0,-100.00,NNW,343,5.0,9.0,72,0.00,,,0.00,0.000000,,2013-03-21 12:53:00,
2013-03-21 08:02:00,11.0,4.0,-100.00,NNW,343,5.0,9.0,72,0.00,,,0.00,0.000000,,2013-03-21 13:02:00,
2013-03-21 08:32:00,11.0,4.0,-100.00,North,352,8.0,15.0,72,0.00,,,0.00,15.000000,,2013-03-21 13:32:00,
2013-03-21 08:42:00,11.0,4.0,-100.00,North,352,8.0,15.0,72,0.00,,,0.00,15.000000,,2013-03-21 13:42:00,
2013-03-21 08:52:00,11.0,4.0,-100.00,North,352,8.0,15.0,72,0.00,,,0.00,15.000000,,2013-03-21 13:52:00,
2013-03-21 09:02:00,11.0,4.0,-100.00,North,352,8.0,15.0,72,0.00,,,0.00,15.000000,,2013-03-21 14:02:00,
2013-03-21 09:32:00,12.0,4.0,-100.00,NNW,338,8.0,14.0,69,0.00,,,0.00,93.000000,,2013-03-21 14:32:00,
2013-03-21 09:43:00,12.0,4.0,-100.00,NNW,338,8.0,14.0,69,0.00,,,0.00,93.000000,,2013-03-21 14:43:00,
2013-03-21 09:52:00,12.0,4.0,-100.00,NNW,338,8.0,14.0,69,0.00,,,0.00,93.000000,,2013-03-21 14:52:00,
2013-03-21 10:03:00,12.0,4.0,-100.00,NNW,338,8.0,14.0,69,0.00,,,0.00,93.000000,,2013-03-21 15:03:00,
2013-03-21 10:33:00,15.0,5.0,-100.00,NW,325,7.0,14.0,65,0.00,,,0.00,221.000000,,2013-03-21 15:33:00,
2013-03-21 10:43:00,15.0,5.0,-100.00,NW,325,7.0,14.0,65,0.00,,,0.00,221.000000,,2013-03-21 15:43:00,
2013-03-21 10:53:00,15.0,5.0,-100.00,NW,325,7.0,14.0,65,0.00,,,0.00,221.000000,,2013-03-21 15:53:00,
2013-03-21 11:03:00,15.0,5.0,-100.00,NW,325,7.0,14.0,65,0.00,,,0.00,221.000000,,2013-03-21 16:03:00,
2013-03-21 11:33:00,20.0,7.0,-100.00,NNE,15,7.0,13.0,57,0.00,,,0.00,474.000000,,2013-03-21 16:33:00,
2013-03-21 11:42:00,20.0,7.0,-100.00,NNE,15,7.0,13.0,57,0.00,,,0.00,474.000000,,2013-03-21 16:42:00,
2013-03-21 11:53:00,20.0,7.0,-100.00,NNE,15,7.0,13.0,57,0.00,,,0.00,474.000000,,2013-03-21 16:53:00,
2013-03-21 12:02:00,20.0,7.0,-100.00,NNE,15,7.0,13.0,57,0.00,,,0.00,474.000000,,2013-03-21 17:02:00,
2013-03-21 12:33:00,26.0,9.0,-100.00,NE,48,3.0,11.0,49,0.00,,,0.00,702.000000,,2013-03-21 17:33:00,
2013-03-21 12:43:00,26.0,9.0,-100.00,NE,48,3.0,11.0,49,0.00,,,0.00,702.000000,,2013-03-21 17:43:00,
2013-03-21 12:53:00,26.0,9.0,-100.00,NE,48,3.0,11.0,49,0.00,,,0.00,702.000000,,2013-03-21 17:53:00,
2013-03-21 13:02:00,26.0,9.0,-100.00,NE,48,3.0,11.0,49,0.00,,,0.00,702.000000,,2013-03-21 18:02:00,
2013-03-21 13:23:00,28.0,9.0,-100.00,NW,305,6.0,15.0,44,0.00,,,0.00,800.000000,,2013-03-21 18:23:00,
2013-03-21 13:32:00,28.0,9.0,-100.00,NW,305,6.0,15.0,44,0.00,,,0.00,800.000000,,2013-03-21 18:32:00,
2013-03-21 13:43:00,28.0,9.0,-100.00,NW,305,6.0,15.0,44,0.00,,,0.00,800.000000,,2013-03-21 18:43:00,
2013-03-21 13:52:00,28.0,9.0,-100.00,NW,305,6.0,15.0,44,0.00,,,0.00,800.000000,,2013-03-21 18:52:00,
2013-03-21 14:02:00,28.0,9.0,-100.00,NW,305,6.0,15.0,44,0.00,,,0.00,800.000000,,2013-03-21 19:02:00,
2013-03-21 14:23:00,30.0,9.0,-100.00,NW,320,6.0,12.0,40,0.00,,,0.00,820.000000,,2013-03-21 19:23:00,
2013-03-21 14:32:00,30.0,9.0,-100.00,NW,320,6.0,12.0,40,0.00,,,0.00,820.000000,,2013-03-21 19:32:00,
2013-03-21 14:43:00,30.0,9.0,-100.00,NW,320,6.0,12.0,40,0.00,,,0.00,820.000000,,2013-03-21 19:43:00,
2013-03-21 14:53:00,30.0,9.0,-100.00,NW,320,6.0,12.0,40,0.00,,,0.00,820.000000,,2013-03-21 19:53:00,
2013-03-21 15:02:00,30.0,9.0,-100.00,NW,320,6.0,12.0,40,0.00,,,0.00,820.000000,,2013-03-21 20:02:00,
2013-03-21 15:33:00,33.0,11.0,-100.00,NE,56,6.0,12.0,39,0.00,,,0.00,777.000000,,2013-03-21 20:33:00,
2013-03-21 15:42:00,33.0,11.0,-100.00,NE,56,6.0,12.0,39,0.00,,,0.00,777.000000,,2013-03-21 20:42:00,
2013-03-21 15:53:00,33.0,11.0,-100.00,NE,56,6.0,12.0,39,0.00,,,0.00,777.000000,,2013-03-21 20:53:00,
2013-03-21 16:02:00,33.0,11.0,-100.00,NE,56,6.0,12.0,39,0.00,,,0.00,777.000000,,2013-03-21 21:02:00,
2013-03-21 16:23:00,33.0,10.0,-100.00,NE,48,6.0,12.0,38,0.00,,,0.00,669.000000,,2013-03-21 21:23:00,
2013-03-21 16:33:00,33.0,10.0,-100.00,NE,48,6.0,12.0,38,0.00,,,0.00,669.000000,,2013-03-21 21:33:00,
2013-03-21 16:43:00,33.0,10.0,-100.00,NE,48,6.0,12.0,38,0.00,,,0.00,669.000000,,2013-03-21 21:43:00,
2013-03-21 16:53:00,33.0,10.0,-100.00,NE,48,6.0,12.0,38,0.00,,,0.00,669.000000,,2013-03-21 21:53:00,
2013-03-21 17:02:00,33.0,10.0,-100.00,NE,48,6.0,12.0,38,0.00,,,0.00,669.000000,,2013-03-21 22:02:00,
2013-03-21 17:33:00,33.0,10.0,-100.00,NNE,25,7.0,11.0,37,0.00,,,0.00,519.000000,,2013-03-21 22:33:00,
2013-03-21 17:43:00,33.0,10.0,-100.00,NNE,25,7.0,11.0,37,0.00,,,0.00,519.000000,,2013-03-21 22:43:00,
2013-03-21 17:53:00,33.0,10.0,-100.00,NNE,25,7.0,11.0,37,0.00,,,0.00,519.000000,,2013-03-21 22:53:00,
2013-03-21 18:02:00,33.0,10.0,-100.00,NNE,25,7.0,11.0,37,0.00,,,0.00,519.000000,,2013-03-21 23:02:00,
2013-03-21 18:22:00,31.0,9.0,-100.00,NW,320,7.0,13.0,39,0.00,,,0.00,332.000000,,2013-03-21 23:22:00,
2013-03-21 18:33:00,31.0,9.0,-100.00,NW,320,7.0,13.0,39,0.00,,,0.00,332.000000,,2013-03-21 23:33:00,
2013-03-21 18:43:00,31.0,9.0,-100.00,NW,320,7.0,13.0,39,0.00,,,0.00,332.000000,,2013-03-21 23:43:00,
2013-03-21 18:53:00,31.0,9.0,-100.00,NW,320,7.0,13.0,39,0.00,,,0.00,332.000000,,2013-03-21 23:53:00,
2013-03-21 19:02:00,31.0,9.0,-100.00,NW,320,7.0,13.0,39,0.00,,,0.00,332.000000,,2013-03-22 00:02:00,
2013-03-21 19:22:00,28.0,8.0,-100.00,NNW,327,5.0,11.0,42,0.00,,,0.00,113.000000,,2013-03-22 00:22:00,
2013-03-21 19:32:00,28.0,8.0,-100.00,NNW,327,5.0,11.0,42,0.00,,,0.00,113.000000,,2013-03-22 00:32:00,
2013-03-21 19:42:00,28.0,8.0,-100.00,NNW,327,5.0,11.0,42,0.00,,,0.00,113.000000,,2013-03-22 00:42:00,
2013-03-21 19:52:00,28.0,8.0,-100.00,NNW,327,5.0,11.0,42,0.00,,,0.00,113.000000,,2013-03-22 00:52:00,
2013-03-21 20:02:00,28.0,8.0,-100.00,NNW,327,5.0,11.0,42,0.00,,,0.00,113.000000,,2013-03-22 01:02:00,
2013-03-21 20:33:00,24.0,8.0,-100.00,NNW,332,4.0,9.0,49,0.00,,,0.00,5.000000,,2013-03-22 01:33:00,
2013-03-21 20:43:00,24.0,8.0,-100.00,NNW,332,4.0,9.0,49,0.00,,,0.00,5.000000,,2013-03-22 01:43:00,
2013-03-21 20:53:00,24.0,8.0,-100.00,NNW,332,4.0,9.0,49,0.00,,,0.00,5.000000,,2013-03-22 01:53:00,
2013-03-21 21:02:00,24.0,8.0,-100.00,NNW,332,4.0,9.0,49,0.00,,,0.00,5.000000,,2013-03-22 02:02:00,
2013-03-21 21:32:00,19.0,6.0,-100.00,North,350,4.0,6.0,56,0.00,,,0.00,0.000000,,2013-03-22 02:32:00,
2013-03-21 21:43:00,19.0,6.0,-100.00,North,350,4.0,6.0,56,0.00,,,0.00,0.000000,,2013-03-22 02:43:00,
2013-03-21 21:53:00,19.0,6.0,-100.00,North,350,4.0,6.0,56,0.00,,,0.00,0.000000,,2013-03-22 02:53:00,
2013-03-21 22:02:00,19.0,6.0,-100.00,North,350,4.0,6.0,56,0.00,,,0.00,0.000000,,2013-03-22 03:02:00,
2013-03-21 22:33:00,15.0,4.0,-100.00,NW,310,2.0,5.0,62,0.00,,,0.00,0.000000,,2013-03-22 03:33:00,
2013-03-21 22:43:00,15.0,4.0,-100.00,NW,310,2.0,5.0,62,0.00,,,0.00,0.000000,,2013-03-22 03:43:00,
2013-03-21 22:53:00,15.0,4.0,-100.00,NW,310,2.0,5.0,62,0.00,,,0.00,0.000000,,2013-03-22 03:53:00,
2013-03-21 23:03:00,15.0,4.0,-100.00,NW,310,2.0,5.0,62,0.00,,,0.00,0.000000,,2013-03-22 04:03:00,
2013-03-21 23:23:00,11.0,3.0,-100.00,WNW,282,1.0,5.0,70,0.00,,,0.00,0.000000,,2013-03-22 04:23:00,
2013-03-21 23:32:00,11.0,3.0,-100.00,WNW,282,1.0,5.0,70,0.00,,,0.00,0.000000,,2013-03-22 04:32:00,
2013-03-21 23:43:00,11.0,3.0,-100.00,WNW,282,1.0,5.0,70,0.00,,,0.00,0.000000,,2013-03-22 04:43:00,
2013-03-21 23:52:00,11.0,3.0,-100.00,WNW,282,1.0,5.0,70,0.00,,,0.00,0.000000,,2013-03-22 04:52:00,